createdAt,value
2022-10-19T00:02:18.491Z,6.00
2022-10-19T00:04:45.007Z,5.94
2022-10-19T00:07:11.379Z,5.94
2022-10-19T00:09:37.905Z,5.93
2022-10-19T00:12:04.377Z,5.93
2022-10-19T00:14:30.787Z,5.90
2022-10-19T00:16:58.100Z,5.84
2022-10-19T00:19:26.721Z,5.73
2022-10-19T00:21:54.079Z,5.68
2022-10-19T00:24:20.900Z,5.61
2022-10-19T00:26:47.635Z,5.56
2022-10-19T00:29:15.585Z,5.56
2022-10-19T00:31:42.386Z,5.51
2022-10-19T00:34:09.111Z,5.47
2022-10-19T00:36:38.104Z,5.45
2022-10-19T00:39:08.241Z,5.42
2022-10-19T00:41:36.220Z,5.41
2022-10-19T00:44:05.721Z,5.41
2022-10-19T00:46:36.081Z,5.41
2022-10-19T00:49:10.002Z,5.43
2022-10-19T00:51:41.499Z,5.43
2022-10-19T00:54:09.314Z,5.43
2022-10-19T00:56:39.575Z,5.46
2022-10-19T00:59:07.877Z,5.45
2022-10-19T01:01:35.014Z,5.45
2022-10-19T01:04:03.483Z,5.43
2022-10-19T01:06:30.430Z,5.40
2022-10-19T01:08:56.859Z,5.33
2022-10-19T01:11:45.037Z,5.29
2022-10-19T01:14:26.323Z,5.22
2022-10-19T01:16:55.545Z,5.16
2022-10-19T01:19:45.534Z,5.12
2022-10-19T01:22:49.971Z,5.06
2022-10-19T01:25:31.201Z,5.00
2022-10-19T01:28:04.109Z,4.90
2022-10-19T01:30:59.435Z,4.81
2022-10-19T01:33:34.383Z,4.80
2022-10-19T01:36:20.995Z,4.78
2022-10-19T01:39:18.300Z,4.72
2022-10-19T01:42:00.376Z,4.66
2022-10-19T01:44:37.914Z,4.65
2022-10-19T01:47:10.575Z,4.64
2022-10-19T01:50:01.114Z,4.68
2022-10-19T01:52:28.514Z,4.68
2022-10-19T01:54:59.471Z,4.67
2022-10-19T01:57:30.261Z,4.66
2022-10-19T01:59:57.736Z,4.66
2022-10-19T02:02:27.812Z,4.64
2022-10-19T02:04:56.774Z,4.64
2022-10-19T02:07:24.801Z,4.61
2022-10-19T02:09:51.440Z,4.57
2022-10-19T02:12:20.007Z,4.54
2022-10-19T02:14:51.770Z,4.53
2022-10-19T02:17:23.300Z,4.53
2022-10-19T02:19:49.650Z,4.47
2022-10-19T02:22:16.122Z,4.45
2022-10-19T02:24:42.503Z,4.46
2022-10-19T02:27:09.530Z,4.38
2022-10-19T02:29:37.886Z,4.32
2022-10-19T02:32:04.775Z,4.29
2022-10-19T02:34:31.631Z,4.23
2022-10-19T02:36:58.505Z,4.24
2022-10-19T02:39:25.509Z,4.23
2022-10-19T02:41:59.870Z,4.28
2022-10-19T02:44:31.301Z,4.30
2022-10-19T02:47:13.303Z,4.29
2022-10-19T02:49:41.105Z,4.29
2022-10-19T02:52:09.833Z,4.27
2022-10-19T02:54:39.110Z,4.27
2022-10-19T02:57:14.511Z,4.20
2022-10-19T02:59:41.032Z,4.22
2022-10-19T03:02:07.916Z,4.19
2022-10-19T03:04:34.558Z,4.18
2022-10-19T03:07:01.260Z,4.15
2022-10-19T03:09:27.668Z,4.11
2022-10-19T03:11:55.716Z,4.08
2022-10-19T03:14:22.148Z,4.04
2022-10-19T03:16:48.519Z,4.04
2022-10-19T03:19:14.992Z,3.99
2022-10-19T03:21:41.408Z,3.98
2022-10-19T03:24:07.797Z,3.98
2022-10-19T03:26:34.221Z,3.97
2022-10-19T03:29:00.734Z,3.96
2022-10-19T03:31:27.254Z,3.98
2022-10-19T03:33:53.786Z,3.96
2022-10-19T03:36:27.623Z,3.96
2022-10-19T03:38:56.248Z,3.98
2022-10-19T03:41:24.948Z,3.94
2022-10-19T03:43:51.964Z,3.89
2022-10-19T03:46:19.170Z,3.85
2022-10-19T03:48:45.698Z,3.83
2022-10-19T03:51:15.478Z,3.82
2022-10-19T03:53:44.080Z,3.83
2022-10-19T03:56:16.017Z,3.84
2022-10-19T03:58:44.146Z,3.84
2022-10-19T04:01:16.786Z,3.84
2022-10-19T04:03:43.654Z,3.82
2022-10-19T04:06:16.932Z,3.75
2022-10-19T04:08:48.862Z,3.74
2022-10-19T04:11:17.171Z,3.70
2022-10-19T04:13:43.620Z,3.67
2022-10-19T04:16:13.841Z,3.63
2022-10-19T04:18:40.249Z,3.58
2022-10-19T04:21:07.193Z,3.50
2022-10-19T04:23:35.687Z,3.52
2022-10-19T04:26:07.603Z,3.53
2022-10-19T04:28:34.814Z,3.54
2022-10-19T04:31:05.870Z,3.54
2022-10-19T04:33:33.645Z,3.58
2022-10-19T04:36:05.134Z,3.57
2022-10-19T04:38:32.844Z,3.54
2022-10-19T04:41:11.430Z,3.53
2022-10-19T04:43:38.159Z,3.50
2022-10-19T04:46:10.474Z,3.48
2022-10-19T04:48:38.302Z,3.49
2022-10-19T04:51:05.316Z,3.51
2022-10-19T04:53:33.168Z,3.53
2022-10-19T04:55:59.962Z,3.51
2022-10-19T04:58:27.362Z,3.46
2022-10-19T05:00:53.880Z,3.41
2022-10-19T05:03:20.458Z,3.39
2022-10-19T05:05:46.916Z,3.37
2022-10-19T05:08:13.326Z,3.39
2022-10-19T05:10:41.211Z,3.38
2022-10-19T05:13:09.600Z,3.30
2022-10-19T05:15:36.005Z,3.22
2022-10-19T05:18:02.484Z,3.21
2022-10-19T05:20:28.936Z,3.17
2022-10-19T05:22:55.317Z,3.15
2022-10-19T05:25:21.750Z,3.14
2022-10-19T05:27:52.483Z,3.12
2022-10-19T05:30:21.763Z,3.10
2022-10-19T05:32:48.841Z,3.10
2022-10-19T05:35:17.590Z,3.04
2022-10-19T05:37:46.491Z,2.99
2022-10-19T05:40:12.961Z,2.98
2022-10-19T05:42:39.501Z,3.00
2022-10-19T05:45:06.443Z,2.98
2022-10-19T05:47:34.419Z,2.92
2022-10-19T05:50:00.914Z,2.90
2022-10-19T05:52:27.712Z,2.91
2022-10-19T05:54:54.089Z,2.91
2022-10-19T05:57:20.476Z,2.94
2022-10-19T05:59:46.941Z,2.95
2022-10-19T06:02:14.191Z,2.95
2022-10-19T06:04:40.656Z,2.93
2022-10-19T06:07:07.199Z,2.88
2022-10-19T06:09:36.213Z,2.88
2022-10-19T06:12:03.712Z,2.90
2022-10-19T06:14:30.249Z,2.89
2022-10-19T06:16:56.731Z,2.87
2022-10-19T06:19:23.139Z,2.87
2022-10-19T06:21:49.562Z,2.87
2022-10-19T06:24:16.028Z,2.89
2022-10-19T06:26:42.593Z,2.93
2022-10-19T06:29:09.708Z,2.93
2022-10-19T06:31:36.609Z,3.01
2022-10-19T06:34:03.814Z,3.04
2022-10-19T06:36:31.390Z,3.04
2022-10-19T06:38:59.574Z,3.06
2022-10-19T06:41:26.005Z,3.13
2022-10-19T06:43:53.870Z,3.20
2022-10-19T06:46:23.239Z,3.25
2022-10-19T06:48:55.003Z,3.31
2022-10-19T06:51:21.953Z,3.36
2022-10-19T06:53:51.696Z,3.40
2022-10-19T06:56:24.484Z,3.48
2022-10-19T06:58:51.053Z,3.57
2022-10-19T07:01:17.643Z,3.69
2022-10-19T07:03:44.279Z,3.77
2022-10-19T07:06:12.717Z,3.85
2022-10-19T07:08:40.964Z,3.93
2022-10-19T07:11:11.406Z,4.06
2022-10-19T07:13:38.197Z,4.20
2022-10-19T07:16:20.622Z,4.36
2022-10-19T07:18:49.288Z,4.43
2022-10-19T07:21:16.761Z,4.44
2022-10-19T07:23:47.266Z,4.55
2022-10-19T07:26:21.265Z,4.66
2022-10-19T07:28:48.910Z,4.77
2022-10-19T07:31:17.916Z,4.89
2022-10-19T07:33:44.762Z,5.04
2022-10-19T07:36:13.247Z,5.14
2022-10-19T07:38:40.543Z,5.24
2022-10-19T07:41:11.047Z,5.31
2022-10-19T07:43:37.467Z,5.42
2022-10-19T07:46:06.831Z,5.54
2022-10-19T07:48:34.491Z,5.62
2022-10-19T07:51:02.567Z,5.73
2022-10-19T07:53:29.101Z,5.83
2022-10-19T07:55:56.033Z,5.94
2022-10-19T07:58:22.705Z,6.03
2022-10-19T08:00:49.275Z,6.14
2022-10-19T08:06:04.138Z,6.30
2022-10-19T08:08:30.871Z,6.40
2022-10-19T08:10:57.639Z,6.49
2022-10-19T08:13:24.257Z,6.59
2022-10-19T08:15:50.611Z,6.72
2022-10-19T08:18:18.337Z,6.78
2022-10-19T08:20:44.986Z,6.87
2022-10-19T08:23:11.353Z,6.98
2022-10-19T08:25:37.697Z,7.15
2022-10-19T08:28:04.248Z,7.31
2022-10-19T08:30:30.631Z,7.47
2022-10-19T08:32:56.996Z,7.59
2022-10-19T08:35:23.386Z,7.77
2022-10-19T08:37:49.939Z,7.89
2022-10-19T08:40:20.784Z,8.00
2022-10-19T08:42:57.755Z,8.18
2022-10-19T08:45:38.603Z,8.32
2022-10-19T08:48:25.474Z,8.44
2022-10-19T08:50:52.915Z,8.54
2022-10-19T08:53:30.424Z,8.65
2022-10-19T08:56:49.489Z,8.76
2022-10-19T08:59:33.681Z,8.86
2022-10-19T09:02:34.464Z,8.96
2022-10-19T09:05:11.611Z,9.06
2022-10-19T09:07:45.388Z,9.09
2022-10-19T09:10:14.720Z,9.18
2022-10-19T09:13:05.551Z,9.31
2022-10-19T09:15:42.539Z,9.47
2022-10-19T09:18:11.564Z,9.55
2022-10-19T09:20:48.049Z,9.61
2022-10-19T09:23:32.529Z,9.71
2022-10-19T09:25:58.882Z,9.75
2022-10-19T09:28:50.504Z,9.85
2022-10-19T09:31:31.950Z,10.00
2022-10-19T09:34:14.045Z,10.04
2022-10-19T09:36:50.664Z,10.11
2022-10-19T09:39:17.838Z,10.17
2022-10-19T09:41:51.670Z,10.29
2022-10-19T09:44:18.583Z,10.41
2022-10-19T09:47:24.037Z,10.47
2022-10-19T09:49:50.491Z,10.50
2022-10-19T09:52:38.143Z,10.51
2022-10-19T09:55:22.703Z,10.53
2022-10-19T09:57:58.319Z,10.61
2022-10-19T10:00:32.847Z,10.60
2022-10-19T10:02:59.285Z,10.52
2022-10-19T10:05:33.092Z,10.52
2022-10-19T10:07:59.647Z,10.58
2022-10-19T10:10:37.038Z,10.64
2022-10-19T10:13:03.775Z,10.69
2022-10-19T10:15:42.582Z,10.76
2022-10-19T10:18:15.699Z,10.87
2022-10-19T10:21:13.984Z,10.91
2022-10-19T10:23:40.474Z,10.98
2022-10-19T10:26:17.571Z,11.03
2022-10-19T10:28:51.208Z,10.99
2022-10-19T10:31:28.465Z,10.92
2022-10-19T10:34:16.236Z,10.89
2022-10-19T10:36:53.978Z,10.87
2022-10-19T10:39:20.615Z,10.97
2022-10-19T10:41:48.982Z,11.05
2022-10-19T10:44:23.087Z,11.11
2022-10-19T10:46:56.970Z,11.16
2022-10-19T10:49:28.009Z,11.25
2022-10-19T10:52:06.857Z,11.38
2022-10-19T10:54:33.855Z,11.40
2022-10-19T10:57:12.708Z,11.47
2022-10-19T11:00:12.135Z,11.41
2022-10-19T11:02:46.421Z,11.45
2022-10-19T11:05:24.463Z,11.52
2022-10-19T11:07:58.136Z,11.56
2022-10-19T11:10:32.976Z,11.60
2022-10-19T11:13:10.128Z,11.60
2022-10-19T11:15:55.327Z,11.61
2022-10-19T11:18:27.612Z,11.67
2022-10-19T11:21:23.376Z,11.80
2022-10-19T11:24:27.403Z,11.95
2022-10-19T11:27:10.348Z,12.07
2022-10-19T11:30:09.465Z,12.07
2022-10-19T11:32:51.922Z,12.12
2022-10-19T11:35:34.550Z,12.21
2022-10-19T11:38:23.367Z,12.26
2022-10-19T11:41:17.914Z,12.35
2022-10-19T11:44:02.617Z,12.43
2022-10-19T11:46:43.385Z,12.44
2022-10-19T11:49:37.155Z,12.43
2022-10-19T11:52:24.685Z,12.51
2022-10-19T11:55:02.577Z,12.51
2022-10-19T11:57:51.073Z,12.46
2022-10-19T12:00:38.226Z,12.53
2022-10-19T12:03:22.732Z,12.55
2022-10-19T12:06:00.966Z,12.53
2022-10-19T12:08:33.511Z,12.56
2022-10-19T12:11:11.866Z,12.64
2022-10-19T12:13:48.113Z,12.74
2022-10-19T12:16:17.302Z,12.77
2022-10-19T12:18:48.901Z,12.76
2022-10-19T12:21:31.565Z,12.76
2022-10-19T12:24:00.707Z,12.78
2022-10-19T12:26:29.769Z,12.77
2022-10-19T12:29:00.738Z,12.78
2022-10-19T12:31:29.860Z,12.81
2022-10-19T12:34:04.533Z,12.76
2022-10-19T12:36:48.090Z,12.73
2022-10-19T12:39:23.253Z,12.81
2022-10-19T12:42:24.399Z,12.87
2022-10-19T12:45:13.845Z,12.86
2022-10-19T12:47:40.700Z,12.90
2022-10-19T12:50:07.690Z,12.90
2022-10-19T12:52:48.133Z,12.88
2022-10-19T12:55:34.729Z,12.85
2022-10-19T12:58:17.713Z,12.87
2022-10-19T13:00:59.265Z,12.88
2022-10-19T13:03:31.122Z,12.95
2022-10-19T13:06:00.020Z,13.01
2022-10-19T13:08:40.910Z,13.04
2022-10-19T13:11:14.642Z,13.01
2022-10-19T13:13:59.219Z,13.07
2022-10-19T13:17:02.106Z,13.14
2022-10-19T13:19:29.340Z,13.07
2022-10-19T13:22:01.864Z,13.04
2022-10-19T13:24:37.063Z,13.05
2022-10-19T13:27:03.570Z,13.09
2022-10-19T13:29:39.373Z,13.08
2022-10-19T13:32:40.486Z,13.13
2022-10-19T13:35:23.802Z,13.14
2022-10-19T13:38:09.194Z,13.18
2022-10-19T13:40:55.479Z,13.17
2022-10-19T13:43:28.733Z,13.19
2022-10-19T13:46:30.479Z,13.19
2022-10-19T13:49:17.369Z,13.17
2022-10-19T13:52:17.387Z,13.16
2022-10-19T13:55:20.968Z,13.13
2022-10-19T13:58:18.486Z,13.14
2022-10-19T14:01:15.395Z,13.10
2022-10-19T14:04:07.280Z,13.13
2022-10-19T14:06:42.283Z,13.12
2022-10-19T14:09:35.263Z,13.15
2022-10-19T14:12:08.078Z,13.11
2022-10-19T14:14:43.229Z,13.11
2022-10-19T14:17:24.639Z,13.06
2022-10-19T14:19:57.698Z,12.99
2022-10-19T14:22:31.042Z,12.96
2022-10-19T14:25:27.283Z,12.97
2022-10-19T14:28:02.341Z,12.94
2022-10-19T14:30:34.978Z,12.93
2022-10-19T14:33:08.004Z,12.92
2022-10-19T14:35:41.287Z,12.90
2022-10-19T14:38:16.392Z,12.91
2022-10-19T14:40:43.012Z,12.90
2022-10-19T14:43:26.345Z,12.92
2022-10-19T14:46:07.983Z,12.93
2022-10-19T14:48:35.953Z,12.90
2022-10-19T14:51:09.607Z,12.89
2022-10-19T14:53:44.643Z,12.89
2022-10-19T14:56:36.812Z,12.87
2022-10-19T14:59:22.280Z,12.84
2022-10-19T15:01:51.543Z,12.82
2022-10-19T15:04:28.888Z,12.84
2022-10-19T15:06:56.171Z,12.81
2022-10-19T15:09:47.404Z,12.77
2022-10-19T15:12:20.644Z,12.72
2022-10-19T15:14:47.929Z,12.71
2022-10-19T15:17:29.601Z,12.69
2022-10-19T15:19:59.886Z,12.65
2022-10-19T15:22:39.609Z,12.59
2022-10-19T15:25:05.942Z,12.54
2022-10-19T15:27:41.829Z,12.50
2022-10-19T15:30:17.485Z,12.44
2022-10-19T15:32:46.373Z,12.36
2022-10-19T15:35:33.184Z,12.26
2022-10-19T15:38:04.146Z,12.19
2022-10-19T15:40:36.084Z,12.14
2022-10-19T15:43:34.731Z,12.06
2022-10-19T15:46:01.600Z,11.98
2022-10-19T15:48:40.530Z,11.91
2022-10-19T15:51:27.384Z,11.83
2022-10-19T15:53:56.303Z,11.76
2022-10-19T15:56:24.762Z,11.71
2022-10-19T15:58:53.085Z,11.64
2022-10-19T16:01:23.195Z,11.58
2022-10-19T16:03:50.152Z,11.55
2022-10-19T16:06:18.157Z,11.49
2022-10-19T16:08:46.206Z,11.44
2022-10-19T16:11:18.248Z,11.36
2022-10-19T16:13:45.359Z,11.31
2022-10-19T16:16:32.343Z,11.26
2022-10-19T16:18:59.904Z,11.24
2022-10-19T16:21:32.460Z,11.16
2022-10-19T16:23:59.435Z,11.11
2022-10-19T16:26:26.397Z,11.04
2022-10-19T16:28:54.329Z,10.99
2022-10-19T16:31:21.631Z,10.95
2022-10-19T16:33:47.986Z,10.90
2022-10-19T16:36:14.512Z,10.86
2022-10-19T16:38:41.047Z,10.81
2022-10-19T16:41:09.915Z,10.80
2022-10-19T16:43:36.728Z,10.73
2022-10-19T16:46:04.392Z,10.68
2022-10-19T16:48:31.331Z,10.68
2022-10-19T16:51:06.793Z,10.66
2022-10-19T16:53:37.908Z,10.61
2022-10-19T16:56:09.963Z,10.58
2022-10-19T16:58:38.983Z,10.53
2022-10-19T17:01:17.586Z,10.50
2022-10-19T17:03:45.625Z,10.50
2022-10-19T17:06:12.789Z,10.48
2022-10-19T17:09:02.699Z,10.44
2022-10-19T17:11:29.656Z,10.38
2022-10-19T17:13:58.478Z,10.36
2022-10-19T17:16:26.494Z,10.36
2022-10-19T17:18:55.593Z,10.33
2022-10-19T17:21:25.623Z,10.31
2022-10-19T17:23:53.973Z,10.26
2022-10-19T17:26:32.351Z,10.26
2022-10-19T17:28:59.679Z,10.24
2022-10-19T17:31:27.294Z,10.20
2022-10-19T17:33:58.083Z,10.18
2022-10-19T17:36:28.136Z,10.18
2022-10-19T17:38:56.080Z,10.16
2022-10-19T17:41:22.479Z,10.14
2022-10-19T17:43:51.681Z,10.10
2022-10-19T17:46:20.823Z,10.07
2022-10-19T17:48:47.345Z,10.06
2022-10-19T17:51:16.329Z,10.03
2022-10-19T17:53:44.487Z,10.05
2022-10-19T17:56:13.338Z,10.03
2022-10-19T17:58:39.981Z,10.04
2022-10-19T18:01:07.478Z,10.04
2022-10-19T18:03:35.863Z,10.00
2022-10-19T18:06:06.848Z,9.96
2022-10-19T18:08:39.442Z,9.94
2022-10-19T18:11:08.265Z,9.94
2022-10-19T18:16:08.955Z,9.89
2022-10-19T18:18:38.234Z,9.89
2022-10-19T18:21:06.631Z,9.85
2022-10-19T18:23:33.199Z,9.85
2022-10-19T18:26:04.295Z,9.86
2022-10-19T18:28:32.272Z,9.84
2022-10-19T18:31:10.311Z,9.80
2022-10-19T18:33:37.151Z,9.79
2022-10-19T18:36:04.687Z,9.78
2022-10-19T18:38:31.670Z,9.76
2022-10-19T18:41:11.581Z,9.74
2022-10-19T18:43:41.421Z,9.72
2022-10-19T18:46:09.280Z,9.68
2022-10-19T18:48:37.725Z,9.66
2022-10-19T18:51:06.861Z,9.63
2022-10-19T18:53:33.913Z,9.64
2022-10-19T18:56:02.365Z,9.63
2022-10-19T18:58:30.897Z,9.59
2022-10-19T19:01:12.647Z,9.53
2022-10-19T19:03:41.625Z,9.51
2022-10-19T19:06:12.355Z,9.43
2022-10-19T19:08:39.430Z,9.38
2022-10-19T19:11:14.453Z,9.35
2022-10-19T19:13:42.194Z,9.30
2022-10-19T19:16:09.325Z,9.32
2022-10-19T19:18:35.996Z,9.32
2022-10-19T19:21:04.188Z,9.29
2022-10-19T19:23:30.972Z,9.25
2022-10-19T19:25:57.402Z,9.23
2022-10-19T19:28:23.728Z,9.20
2022-10-19T19:30:50.286Z,9.21
2022-10-19T19:33:16.682Z,9.12
2022-10-19T19:35:44.721Z,9.11
2022-10-19T19:38:12.209Z,9.08
2022-10-19T19:40:40.483Z,9.10
2022-10-19T19:43:07.216Z,9.10
2022-10-19T19:45:33.632Z,9.06
2022-10-19T19:47:59.973Z,9.03
2022-10-19T19:50:26.368Z,8.98
2022-10-19T19:52:52.703Z,8.95
2022-10-19T19:55:19.068Z,8.92
2022-10-19T19:57:48.317Z,8.88
2022-10-19T20:00:16.311Z,8.85
2022-10-19T20:02:43.518Z,8.82
2022-10-19T20:05:09.891Z,8.83
2022-10-19T20:07:36.483Z,8.83
2022-10-19T20:10:03.252Z,8.77
2022-10-19T20:12:29.702Z,8.74
2022-10-19T20:14:56.359Z,8.73
2022-10-19T20:17:24.670Z,8.71
2022-10-19T20:19:51.001Z,8.68
2022-10-19T20:22:17.524Z,8.64
2022-10-19T20:24:43.947Z,8.61
2022-10-19T20:27:10.543Z,8.59
2022-10-19T20:29:36.893Z,8.54
2022-10-19T20:32:03.306Z,8.53
2022-10-19T20:34:31.045Z,8.52
2022-10-19T20:36:57.477Z,8.49
2022-10-19T20:39:23.828Z,8.49
2022-10-19T20:41:50.172Z,8.45
2022-10-19T20:44:16.580Z,8.44
2022-10-19T20:46:42.921Z,8.40
2022-10-19T20:49:11.434Z,8.36
2022-10-19T20:51:38.881Z,8.33
2022-10-19T20:54:08.278Z,8.31
2022-10-19T20:56:37.999Z,8.26
2022-10-19T20:59:11.623Z,8.25
2022-10-19T21:01:39.810Z,8.22
2022-10-19T21:04:08.685Z,8.21
2022-10-19T21:06:41.312Z,8.22
2022-10-19T21:09:09.720Z,8.20
2022-10-19T21:11:39.233Z,8.18
2022-10-19T21:14:08.356Z,8.15
2022-10-19T21:16:35.451Z,8.13
2022-10-19T21:19:03.686Z,8.12
2022-10-19T21:21:32.600Z,8.09
2022-10-19T21:24:04.521Z,8.04
2022-10-19T21:26:32.600Z,8.04
2022-10-19T21:28:59.648Z,8.01
2022-10-19T21:31:26.930Z,7.95
2022-10-19T21:33:53.955Z,7.89
2022-10-19T21:36:22.092Z,7.85
2022-10-19T21:38:48.561Z,7.80
2022-10-19T21:41:20.793Z,7.74
2022-10-19T21:43:50.422Z,7.71
2022-10-19T21:46:19.086Z,7.72
2022-10-19T21:48:46.089Z,7.70
2022-10-19T21:51:37.768Z,7.70
2022-10-19T21:54:06.558Z,7.70
2022-10-19T21:56:34.087Z,7.68
2022-10-19T21:59:00.508Z,7.65
2022-10-19T22:01:28.476Z,7.64
2022-10-19T22:04:03.013Z,7.62
2022-10-19T22:06:31.484Z,7.62
2022-10-19T22:08:58.083Z,7.60
2022-10-19T22:11:25.835Z,7.62
2022-10-19T22:13:56.888Z,7.59
2022-10-19T22:16:25.186Z,7.58
2022-10-19T22:18:52.492Z,7.55
2022-10-19T22:21:27.205Z,7.54
2022-10-19T22:23:56.703Z,7.52
2022-10-19T22:26:32.099Z,7.50
2022-10-19T22:29:00.305Z,7.47
2022-10-19T22:31:29.276Z,7.43
2022-10-19T22:33:55.903Z,7.43
2022-10-19T22:36:22.423Z,7.42
2022-10-19T22:38:48.795Z,7.40
2022-10-19T22:42:17.860Z,7.42
2022-10-19T22:44:45.242Z,7.41
2022-10-19T22:47:11.787Z,7.38
2022-10-19T22:49:38.270Z,7.37
2022-10-19T22:52:04.950Z,7.33
2022-10-19T22:54:31.363Z,7.30
2022-10-19T22:56:57.708Z,7.32
2022-10-19T22:59:24.155Z,7.30
2022-10-19T23:01:50.628Z,7.31
2022-10-19T23:04:17.171Z,7.28
2022-10-19T23:06:43.558Z,7.26
2022-10-19T23:09:09.983Z,7.30
2022-10-19T23:11:36.462Z,7.27
2022-10-19T23:14:03.012Z,7.26
2022-10-19T23:16:29.412Z,7.24
2022-10-19T23:18:56.051Z,7.21
2022-10-19T23:21:22.458Z,7.18
2022-10-19T23:23:48.888Z,7.20
2022-10-19T23:26:18.307Z,7.21
2022-10-19T23:28:46.879Z,7.20
2022-10-19T23:31:19.430Z,7.17
2022-10-19T23:33:46.900Z,7.13
2022-10-19T23:36:20.007Z,7.12
2022-10-19T23:38:48.126Z,7.11
2022-10-19T23:41:15.191Z,7.09
2022-10-19T23:43:41.680Z,7.07
2022-10-19T23:46:08.495Z,7.06
2022-10-19T23:48:35.774Z,7.08
2022-10-19T23:51:07.572Z,7.08
2022-10-19T23:53:39.983Z,7.06
2022-10-19T23:56:13.669Z,7.05
2022-10-19T23:58:40.469Z,7.03
